sensor_id;sensor_type;location;lat;lon;timestamp;P1;durP1;ratioP1;P2;durP2;ratioP2
37647;SDS011;23490;53.656;10.076;2023-04-29T00:01:04;19.60;;;10.85;;
37647;SDS011;23490;53.656;10.076;2023-04-29T00:03:29;21.90;;;10.07;;
37647;SDS011;23490;53.656;10.076;2023-04-29T00:05:57;17.77;;;11.43;;
37647;SDS011;23490;53.656;10.076;2023-04-29T00:08:23;17.42;;;10.45;;
37647;SDS011;23490;53.656;10.076;2023-04-29T00:10:49;16.63;;;9.73;;
37647;SDS011;23490;53.656;10.076;2023-04-29T00:13:15;17.40;;;9.77;;
37647;SDS011;23490;53.656;10.076;2023-04-29T00:15:40;19.42;;;10.20;;
37647;SDS011;23490;53.656;10.076;2023-04-29T00:18:06;17.02;;;9.90;;
37647;SDS011;23490;53.656;10.076;2023-04-29T00:20:31;20.75;;;10.18;;
37647;SDS011;23490;53.656;10.076;2023-04-29T00:22:57;18.85;;;10.35;;
37647;SDS011;23490;53.656;10.076;2023-04-29T00:25:22;17.55;;;9.85;;
37647;SDS011;23490;53.656;10.076;2023-04-29T00:27:48;17.30;;;9.77;;
37647;SDS011;23490;53.656;10.076;2023-04-29T00:30:13;15.63;;;9.75;;
37647;SDS011;23490;53.656;10.076;2023-04-29T00:32:39;19.48;;;9.60;;
37647;SDS011;23490;53.656;10.076;2023-04-29T00:35:05;18.80;;;10.30;;
37647;SDS011;23490;53.656;10.076;2023-04-29T00:37:31;17.67;;;8.75;;
37647;SDS011;23490;53.656;10.076;2023-04-29T00:39:57;16.17;;;10.27;;
37647;SDS011;23490;53.656;10.076;2023-04-29T00:42:23;18.05;;;9.90;;
37647;SDS011;23490;53.656;10.076;2023-04-29T00:44:50;18.45;;;10.05;;
37647;SDS011;23490;53.656;10.076;2023-04-29T00:47:15;16.60;;;9.68;;
37647;SDS011;23490;53.656;10.076;2023-04-29T00:49:41;20.80;;;10.68;;
37647;SDS011;23490;53.656;10.076;2023-04-29T00:52:09;17.52;;;10.00;;
37647;SDS011;23490;53.656;10.076;2023-04-29T00:54:38;17.30;;;9.17;;
37647;SDS011;23490;53.656;10.076;2023-04-29T00:57:03;14.77;;;9.57;;
37647;SDS011;23490;53.656;10.076;2023-04-29T00:59:30;17.42;;;9.65;;
37647;SDS011;23490;53.656;10.076;2023-04-29T01:01:59;17.52;;;10.75;;
37647;SDS011;23490;53.656;10.076;2023-04-29T01:04:26;19.00;;;10.35;;
37647;SDS011;23490;53.656;10.076;2023-04-29T01:07:01;21.15;;;10.93;;
37647;SDS011;23490;53.656;10.076;2023-04-29T01:15:08;20.45;;;11.23;;
37647;SDS011;23490;53.656;10.076;2023-04-29T01:17:49;20.98;;;11.00;;
37647;SDS011;23490;53.656;10.076;2023-04-29T01:20:21;16.45;;;10.82;;
37647;SDS011;23490;53.656;10.076;2023-04-29T01:22:47;18.65;;;10.40;;
37647;SDS011;23490;53.656;10.076;2023-04-29T01:25:13;18.40;;;10.93;;
37647;SDS011;23490;53.656;10.076;2023-04-29T01:30:38;21.20;;;11.65;;
37647;SDS011;23490;53.656;10.076;2023-04-29T01:33:16;19.58;;;11.25;;
37647;SDS011;23490;53.656;10.076;2023-04-29T01:44:55;21.13;;;11.23;;
37647;SDS011;23490;53.656;10.076;2023-04-29T01:47:25;20.33;;;11.90;;
37647;SDS011;23490;53.656;10.076;2023-04-29T01:49:51;19.70;;;11.32;;
37647;SDS011;23490;53.656;10.076;2023-04-29T01:52:16;20.23;;;12.63;;
37647;SDS011;23490;53.656;10.076;2023-04-29T01:54:42;21.50;;;12.45;;
37647;SDS011;23490;53.656;10.076;2023-04-29T01:57:08;23.77;;;12.43;;
37647;SDS011;23490;53.656;10.076;2023-04-29T01:59:33;25.08;;;13.27;;
37647;SDS011;23490;53.656;10.076;2023-04-29T02:01:59;24.00;;;13.45;;
37647;SDS011;23490;53.656;10.076;2023-04-29T02:04:24;24.08;;;12.88;;
37647;SDS011;23490;53.656;10.076;2023-04-29T02:06:50;22.63;;;13.50;;
37647;SDS011;23490;53.656;10.076;2023-04-29T02:09:17;19.92;;;12.73;;
37647;SDS011;23490;53.656;10.076;2023-04-29T02:11:43;21.70;;;12.70;;
37647;SDS011;23490;53.656;10.076;2023-04-29T02:14:08;21.15;;;12.77;;
37647;SDS011;23490;53.656;10.076;2023-04-29T02:16:36;23.17;;;12.95;;
37647;SDS011;23490;53.656;10.076;2023-04-29T02:19:02;25.40;;;13.60;;
37647;SDS011;23490;53.656;10.076;2023-04-29T02:21:27;20.52;;;12.50;;
37647;SDS011;23490;53.656;10.076;2023-04-29T02:23:54;24.40;;;12.75;;
37647;SDS011;23490;53.656;10.076;2023-04-29T02:26:25;18.42;;;11.45;;
37647;SDS011;23490;53.656;10.076;2023-04-29T02:28:54;24.58;;;12.40;;
37647;SDS011;23490;53.656;10.076;2023-04-29T02:31:21;19.75;;;11.93;;
37647;SDS011;23490;53.656;10.076;2023-04-29T02:33:46;20.00;;;11.50;;
37647;SDS011;23490;53.656;10.076;2023-04-29T02:36:12;18.55;;;11.68;;
37647;SDS011;23490;53.656;10.076;2023-04-29T02:38:39;19.35;;;11.02;;
37647;SDS011;23490;53.656;10.076;2023-04-29T02:41:05;20.27;;;11.60;;
37647;SDS011;23490;53.656;10.076;2023-04-29T02:43:33;19.85;;;11.88;;
37647;SDS011;23490;53.656;10.076;2023-04-29T02:45:59;21.98;;;11.80;;
37647;SDS011;23490;53.656;10.076;2023-04-29T02:48:24;19.08;;;11.85;;
37647;SDS011;23490;53.656;10.076;2023-04-29T02:50:50;17.83;;;10.95;;
37647;SDS011;23490;53.656;10.076;2023-04-29T02:53:17;19.50;;;11.93;;
37647;SDS011;23490;53.656;10.076;2023-04-29T02:55:44;25.27;;;11.70;;
37647;SDS011;23490;53.656;10.076;2023-04-29T02:58:09;21.20;;;11.75;;
37647;SDS011;23490;53.656;10.076;2023-04-29T03:00:34;17.85;;;11.43;;
37647;SDS011;23490;53.656;10.076;2023-04-29T03:03:00;22.42;;;11.13;;
37647;SDS011;23490;53.656;10.076;2023-04-29T03:05:26;21.83;;;12.55;;
37647;SDS011;23490;53.656;10.076;2023-04-29T03:07:52;18.77;;;11.95;;
37647;SDS011;23490;53.656;10.076;2023-04-29T03:10:18;22.33;;;11.90;;
37647;SDS011;23490;53.656;10.076;2023-04-29T03:12:43;21.23;;;11.77;;
37647;SDS011;23490;53.656;10.076;2023-04-29T03:15:09;19.70;;;11.85;;
37647;SDS011;23490;53.656;10.076;2023-04-29T03:17:37;23.83;;;12.13;;
37647;SDS011;23490;53.656;10.076;2023-04-29T03:20:06;22.27;;;13.07;;
37647;SDS011;23490;53.656;10.076;2023-04-29T03:22:34;22.80;;;11.98;;
37647;SDS011;23490;53.656;10.076;2023-04-29T03:25:00;21.27;;;11.70;;
37647;SDS011;23490;53.656;10.076;2023-04-29T03:27:25;17.65;;;10.82;;
37647;SDS011;23490;53.656;10.076;2023-04-29T03:29:52;22.83;;;12.52;;
37647;SDS011;23490;53.656;10.076;2023-04-29T03:32:19;19.92;;;12.40;;
37647;SDS011;23490;53.656;10.076;2023-04-29T03:34:45;21.02;;;12.32;;
37647;SDS011;23490;53.656;10.076;2023-04-29T03:37:10;23.40;;;13.18;;
37647;SDS011;23490;53.656;10.076;2023-04-29T03:39:35;20.75;;;12.10;;
37647;SDS011;23490;53.656;10.076;2023-04-29T03:42:01;19.98;;;11.68;;
37647;SDS011;23490;53.656;10.076;2023-04-29T03:44:28;21.52;;;12.50;;
37647;SDS011;23490;53.656;10.076;2023-04-29T03:46:53;20.88;;;12.30;;
37647;SDS011;23490;53.656;10.076;2023-04-29T03:49:19;17.73;;;10.98;;
37647;SDS011;23490;53.656;10.076;2023-04-29T03:51:44;19.58;;;11.85;;
37647;SDS011;23490;53.656;10.076;2023-04-29T03:54:10;19.95;;;11.80;;
37647;SDS011;23490;53.656;10.076;2023-04-29T03:56:37;19.08;;;11.48;;
37647;SDS011;23490;53.656;10.076;2023-04-29T03:59:03;23.58;;;12.88;;
37647;SDS011;23490;53.656;10.076;2023-04-29T04:01:29;19.05;;;11.70;;
37647;SDS011;23490;53.656;10.076;2023-04-29T04:03:55;22.00;;;11.20;;
37647;SDS011;23490;53.656;10.076;2023-04-29T04:06:20;19.73;;;11.63;;
37647;SDS011;23490;53.656;10.076;2023-04-29T04:08:46;18.10;;;11.27;;
37647;SDS011;23490;53.656;10.076;2023-04-29T04:11:11;19.92;;;11.68;;
37647;SDS011;23490;53.656;10.076;2023-04-29T04:13:39;19.52;;;11.25;;
37647;SDS011;23490;53.656;10.076;2023-04-29T04:16:07;18.10;;;10.95;;
37647;SDS011;23490;53.656;10.076;2023-04-29T04:18:35;19.25;;;11.93;;
37647;SDS011;23490;53.656;10.076;2023-04-29T04:21:05;22.70;;;13.02;;
37647;SDS011;23490;53.656;10.076;2023-04-29T04:23:35;19.00;;;11.30;;
37647;SDS011;23490;53.656;10.076;2023-04-29T04:26:02;20.50;;;12.18;;
37647;SDS011;23490;53.656;10.076;2023-04-29T04:28:28;21.00;;;11.93;;
37647;SDS011;23490;53.656;10.076;2023-04-29T04:30:54;23.83;;;12.02;;
37647;SDS011;23490;53.656;10.076;2023-04-29T04:33:20;22.20;;;12.80;;
37647;SDS011;23490;53.656;10.076;2023-04-29T04:35:45;20.73;;;12.25;;
37647;SDS011;23490;53.656;10.076;2023-04-29T04:38:11;20.55;;;11.82;;
37647;SDS011;23490;53.656;10.076;2023-04-29T04:40:39;18.30;;;11.88;;
37647;SDS011;23490;53.656;10.076;2023-04-29T04:43:05;21.45;;;11.13;;
37647;SDS011;23490;53.656;10.076;2023-04-29T04:45:30;22.85;;;12.30;;
37647;SDS011;23490;53.656;10.076;2023-04-29T04:47:56;21.00;;;12.35;;
37647;SDS011;23490;53.656;10.076;2023-04-29T04:50:21;21.98;;;12.30;;
37647;SDS011;23490;53.656;10.076;2023-04-29T04:52:46;26.77;;;12.10;;
37647;SDS011;23490;53.656;10.076;2023-04-29T04:55:12;20.73;;;12.15;;
37647;SDS011;23490;53.656;10.076;2023-04-29T04:57:37;18.23;;;11.00;;
37647;SDS011;23490;53.656;10.076;2023-04-29T05:00:04;18.08;;;11.38;;
37647;SDS011;23490;53.656;10.076;2023-04-29T05:02:31;20.60;;;12.07;;
37647;SDS011;23490;53.656;10.076;2023-04-29T05:04:57;20.73;;;12.18;;
37647;SDS011;23490;53.656;10.076;2023-04-29T05:07:22;21.17;;;12.70;;
37647;SDS011;23490;53.656;10.076;2023-04-29T05:09:48;22.15;;;12.07;;
37647;SDS011;23490;53.656;10.076;2023-04-29T05:12:13;18.23;;;11.48;;
37647;SDS011;23490;53.656;10.076;2023-04-29T05:14:39;21.20;;;11.13;;
37647;SDS011;23490;53.656;10.076;2023-04-29T05:17:06;22.13;;;11.50;;
37647;SDS011;23490;53.656;10.076;2023-04-29T05:19:34;18.88;;;11.57;;
37647;SDS011;23490;53.656;10.076;2023-04-29T05:21:59;18.75;;;10.80;;
37647;SDS011;23490;53.656;10.076;2023-04-29T05:24:25;21.85;;;11.60;;
37647;SDS011;23490;53.656;10.076;2023-04-29T05:26:51;20.20;;;10.52;;
37647;SDS011;23490;53.656;10.076;2023-04-29T05:29:18;19.02;;;9.90;;
37647;SDS011;23490;53.656;10.076;2023-04-29T05:31:43;18.33;;;10.65;;
37647;SDS011;23490;53.656;10.076;2023-04-29T05:34:09;17.58;;;10.10;;
37647;SDS011;23490;53.656;10.076;2023-04-29T05:36:34;18.23;;;10.25;;
37647;SDS011;23490;53.656;10.076;2023-04-29T05:39:00;17.08;;;9.48;;
37647;SDS011;23490;53.656;10.076;2023-04-29T05:41:25;18.52;;;9.15;;
37647;SDS011;23490;53.656;10.076;2023-04-29T05:43:50;15.95;;;8.70;;
37647;SDS011;23490;53.656;10.076;2023-04-29T05:46:16;15.82;;;8.52;;
37647;SDS011;23490;53.656;10.076;2023-04-29T05:48:43;18.95;;;8.90;;
37647;SDS011;23490;53.656;10.076;2023-04-29T05:51:08;15.98;;;8.23;;
37647;SDS011;23490;53.656;10.076;2023-04-29T05:53:35;14.02;;;8.38;;
37647;SDS011;23490;53.656;10.076;2023-04-29T05:56:02;14.85;;;7.30;;
37647;SDS011;23490;53.656;10.076;2023-04-29T05:58:32;15.07;;;7.35;;
37647;SDS011;23490;53.656;10.076;2023-04-29T06:00:58;14.45;;;7.53;;
37647;SDS011;23490;53.656;10.076;2023-04-29T06:03:24;14.35;;;7.50;;
37647;SDS011;23490;53.656;10.076;2023-04-29T06:05:49;14.95;;;7.10;;
37647;SDS011;23490;53.656;10.076;2023-04-29T06:08:15;16.50;;;7.78;;
37647;SDS011;23490;53.656;10.076;2023-04-29T06:10:41;13.02;;;7.28;;
37647;SDS011;23490;53.656;10.076;2023-04-29T06:13:07;16.15;;;7.80;;
37647;SDS011;23490;53.656;10.076;2023-04-29T06:15:32;14.15;;;7.15;;
37647;SDS011;23490;53.656;10.076;2023-04-29T06:17:58;13.27;;;7.50;;
37647;SDS011;23490;53.656;10.076;2023-04-29T06:20:23;10.88;;;6.65;;
37647;SDS011;23490;53.656;10.076;2023-04-29T06:22:49;11.60;;;6.07;;
37647;SDS011;23490;53.656;10.076;2023-04-29T06:25:14;12.10;;;7.28;;
37647;SDS011;23490;53.656;10.076;2023-04-29T06:27:40;13.82;;;7.25;;
37647;SDS011;23490;53.656;10.076;2023-04-29T06:30:05;11.82;;;6.82;;
37647;SDS011;23490;53.656;10.076;2023-04-29T06:32:31;11.43;;;6.65;;
37647;SDS011;23490;53.656;10.076;2023-04-29T06:34:57;13.23;;;6.88;;
37647;SDS011;23490;53.656;10.076;2023-04-29T06:37:23;12.18;;;7.10;;
37647;SDS011;23490;53.656;10.076;2023-04-29T06:39:49;13.40;;;6.65;;
37647;SDS011;23490;53.656;10.076;2023-04-29T06:42:14;13.05;;;7.38;;
37647;SDS011;23490;53.656;10.076;2023-04-29T06:44:41;13.40;;;6.22;;
37647;SDS011;23490;53.656;10.076;2023-04-29T06:47:06;11.20;;;6.63;;
37647;SDS011;23490;53.656;10.076;2023-04-29T06:49:32;14.93;;;6.78;;
37647;SDS011;23490;53.656;10.076;2023-04-29T06:51:59;10.65;;;5.53;;
37647;SDS011;23490;53.656;10.076;2023-04-29T06:54:35;11.50;;;5.88;;
37647;SDS011;23490;53.656;10.076;2023-04-29T06:57:33;13.80;;;5.57;;
37647;SDS011;23490;53.656;10.076;2023-04-29T06:59:58;10.07;;;5.85;;
37647;SDS011;23490;53.656;10.076;2023-04-29T07:02:23;11.30;;;5.78;;
37647;SDS011;23490;53.656;10.076;2023-04-29T07:04:49;12.23;;;5.28;;
37647;SDS011;23490;53.656;10.076;2023-04-29T07:07:15;11.05;;;5.70;;
37647;SDS011;23490;53.656;10.076;2023-04-29T07:09:41;10.43;;;5.22;;
37647;SDS011;23490;53.656;10.076;2023-04-29T07:12:07;12.43;;;5.45;;
37647;SDS011;23490;53.656;10.076;2023-04-29T07:14:32;10.82;;;5.68;;
37647;SDS011;23490;53.656;10.076;2023-04-29T07:16:58;10.77;;;5.28;;
37647;SDS011;23490;53.656;10.076;2023-04-29T07:19:24;9.70;;;4.95;;
37647;SDS011;23490;53.656;10.076;2023-04-29T07:21:49;9.50;;;5.10;;
37647;SDS011;23490;53.656;10.076;2023-04-29T07:24:15;8.25;;;4.32;;
37647;SDS011;23490;53.656;10.076;2023-04-29T07:26:41;11.10;;;5.53;;
37647;SDS011;23490;53.656;10.076;2023-04-29T07:29:08;12.20;;;4.88;;
37647;SDS011;23490;53.656;10.076;2023-04-29T07:31:34;10.70;;;4.63;;
37647;SDS011;23490;53.656;10.076;2023-04-29T07:34:00;9.75;;;5.13;;
37647;SDS011;23490;53.656;10.076;2023-04-29T07:36:26;9.73;;;5.00;;
37647;SDS011;23490;53.656;10.076;2023-04-29T07:39:35;12.52;;;4.82;;
37647;SDS011;23490;53.656;10.076;2023-04-29T07:41:58;8.27;;;4.63;;
37647;SDS011;23490;53.656;10.076;2023-04-29T07:44:25;10.82;;;5.30;;
37647;SDS011;23490;53.656;10.076;2023-04-29T07:46:50;11.75;;;4.68;;
37647;SDS011;23490;53.656;10.076;2023-04-29T07:49:16;7.97;;;4.50;;
37647;SDS011;23490;53.656;10.076;2023-04-29T07:51:41;8.60;;;4.35;;
37647;SDS011;23490;53.656;10.076;2023-04-29T07:54:07;9.98;;;4.40;;
37647;SDS011;23490;53.656;10.076;2023-04-29T07:56:36;12.45;;;5.15;;
37647;SDS011;23490;53.656;10.076;2023-04-29T07:59:01;10.70;;;4.78;;
37647;SDS011;23490;53.656;10.076;2023-04-29T08:01:27;8.70;;;4.55;;
37647;SDS011;23490;53.656;10.076;2023-04-29T08:03:55;10.10;;;4.60;;
37647;SDS011;23490;53.656;10.076;2023-04-29T08:06:20;11.05;;;4.45;;
37647;SDS011;23490;53.656;10.076;2023-04-29T08:08:48;8.45;;;4.50;;
37647;SDS011;23490;53.656;10.076;2023-04-29T08:11:15;10.35;;;4.28;;
37647;SDS011;23490;53.656;10.076;2023-04-29T08:13:41;6.68;;;3.97;;
37647;SDS011;23490;53.656;10.076;2023-04-29T08:16:06;9.68;;;4.32;;
37647;SDS011;23490;53.656;10.076;2023-04-29T08:18:33;6.45;;;3.83;;
37647;SDS011;23490;53.656;10.076;2023-04-29T08:21:02;9.40;;;4.15;;
37647;SDS011;23490;53.656;10.076;2023-04-29T08:23:28;9.55;;;3.78;;
37647;SDS011;23490;53.656;10.076;2023-04-29T08:25:53;8.52;;;3.85;;
37647;SDS011;23490;53.656;10.076;2023-04-29T08:28:20;8.90;;;3.83;;
37647;SDS011;23490;53.656;10.076;2023-04-29T08:30:46;7.90;;;4.45;;
37647;SDS011;23490;53.656;10.076;2023-04-29T08:33:12;7.03;;;4.00;;
37647;SDS011;23490;53.656;10.076;2023-04-29T08:35:38;8.18;;;3.63;;
37647;SDS011;23490;53.656;10.076;2023-04-29T08:38:04;7.75;;;3.58;;
37647;SDS011;23490;53.656;10.076;2023-04-29T08:40:32;8.13;;;4.32;;
37647;SDS011;23490;53.656;10.076;2023-04-29T08:42:59;7.20;;;4.05;;
37647;SDS011;23490;53.656;10.076;2023-04-29T08:45:25;6.95;;;4.05;;
37647;SDS011;23490;53.656;10.076;2023-04-29T08:47:52;9.05;;;4.18;;
37647;SDS011;23490;53.656;10.076;2023-04-29T08:50:19;7.80;;;3.78;;
37647;SDS011;23490;53.656;10.076;2023-04-29T08:52:46;7.90;;;4.47;;
37647;SDS011;23490;53.656;10.076;2023-04-29T08:55:11;8.77;;;3.42;;
37647;SDS011;23490;53.656;10.076;2023-04-29T08:57:36;5.60;;;3.80;;
37647;SDS011;23490;53.656;10.076;2023-04-29T09:00:08;7.22;;;3.90;;
37647;SDS011;23490;53.656;10.076;2023-04-29T09:02:38;8.25;;;4.22;;
37647;SDS011;23490;53.656;10.076;2023-04-29T09:05:09;8.45;;;4.22;;
37647;SDS011;23490;53.656;10.076;2023-04-29T09:07:36;7.15;;;3.88;;
37647;SDS011;23490;53.656;10.076;2023-04-29T09:10:05;8.20;;;4.47;;
37647;SDS011;23490;53.656;10.076;2023-04-29T09:12:30;7.90;;;4.63;;
37647;SDS011;23490;53.656;10.076;2023-04-29T09:14:56;7.53;;;4.68;;
37647;SDS011;23490;53.656;10.076;2023-04-29T09:22:52;5.72;;;3.80;;
37647;SDS011;23490;53.656;10.076;2023-04-29T09:25:19;8.18;;;4.60;;
37647;SDS011;23490;53.656;10.076;2023-04-29T09:27:45;9.38;;;4.93;;
37647;SDS011;23490;53.656;10.076;2023-04-29T09:30:10;6.68;;;4.47;;
37647;SDS011;23490;53.656;10.076;2023-04-29T09:32:37;6.70;;;4.28;;
37647;SDS011;23490;53.656;10.076;2023-04-29T09:38:06;7.45;;;4.03;;
37647;SDS011;23490;53.656;10.076;2023-04-29T09:40:33;6.47;;;4.03;;
37647;SDS011;23490;53.656;10.076;2023-04-29T09:42:59;8.00;;;4.35;;
37647;SDS011;23490;53.656;10.076;2023-04-29T09:45:35;6.10;;;3.80;;
37647;SDS011;23490;53.656;10.076;2023-04-29T09:48:04;6.55;;;3.65;;
37647;SDS011;23490;53.656;10.076;2023-04-29T09:50:30;8.15;;;3.88;;
37647;SDS011;23490;53.656;10.076;2023-04-29T09:52:56;8.13;;;3.70;;
37647;SDS011;23490;53.656;10.076;2023-04-29T09:55:22;6.90;;;4.03;;
37647;SDS011;23490;53.656;10.076;2023-04-29T09:57:47;9.38;;;4.30;;
37647;SDS011;23490;53.656;10.076;2023-04-29T10:00:13;6.50;;;3.60;;
37647;SDS011;23490;53.656;10.076;2023-04-29T10:02:42;7.18;;;3.80;;
37647;SDS011;23490;53.656;10.076;2023-04-29T10:05:14;6.75;;;4.15;;
37647;SDS011;23490;53.656;10.076;2023-04-29T10:07:40;7.82;;;3.75;;
37647;SDS011;23490;53.656;10.076;2023-04-29T10:10:06;8.88;;;3.40;;
37647;SDS011;23490;53.656;10.076;2023-04-29T10:12:35;6.53;;;3.28;;
37647;SDS011;23490;53.656;10.076;2023-04-29T10:18:13;5.78;;;3.03;;
37647;SDS011;23490;53.656;10.076;2023-04-29T10:20:40;7.97;;;3.13;;
37647;SDS011;23490;53.656;10.076;2023-04-29T10:23:14;5.50;;;3.50;;
37647;SDS011;23490;53.656;10.076;2023-04-29T10:25:43;5.45;;;3.78;;
37647;SDS011;23490;53.656;10.076;2023-04-29T10:28:12;7.55;;;3.83;;
37647;SDS011;23490;53.656;10.076;2023-04-29T10:30:44;6.65;;;3.75;;
37647;SDS011;23490;53.656;10.076;2023-04-29T10:33:13;9.40;;;3.85;;
37647;SDS011;23490;53.656;10.076;2023-04-29T10:35:41;5.38;;;3.22;;
37647;SDS011;23490;53.656;10.076;2023-04-29T10:38:28;6.55;;;3.38;;
37647;SDS011;23490;53.656;10.076;2023-04-29T10:40:59;7.93;;;3.63;;
37647;SDS011;23490;53.656;10.076;2023-04-29T10:43:30;7.18;;;3.88;;
37647;SDS011;23490;53.656;10.076;2023-04-29T10:48:41;6.35;;;3.63;;
37647;SDS011;23490;53.656;10.076;2023-04-29T10:51:07;6.60;;;3.78;;
37647;SDS011;23490;53.656;10.076;2023-04-29T10:53:33;6.47;;;3.55;;
37647;SDS011;23490;53.656;10.076;2023-04-29T10:56:04;5.40;;;3.25;;
37647;SDS011;23490;53.656;10.076;2023-04-29T11:01:15;8.68;;;3.50;;
37647;SDS011;23490;53.656;10.076;2023-04-29T11:09:02;7.13;;;3.80;;
37647;SDS011;23490;53.656;10.076;2023-04-29T11:12:02;8.40;;;4.53;;
37647;SDS011;23490;53.656;10.076;2023-04-29T11:14:27;6.93;;;4.07;;
37647;SDS011;23490;53.656;10.076;2023-04-29T11:17:02;9.80;;;5.47;;
37647;SDS011;23490;53.656;10.076;2023-04-29T11:19:33;7.18;;;4.28;;
37647;SDS011;23490;53.656;10.076;2023-04-29T11:22:03;7.00;;;4.47;;
37647;SDS011;23490;53.656;10.076;2023-04-29T11:24:34;7.93;;;4.40;;
37647;SDS011;23490;53.656;10.076;2023-04-29T11:27:01;7.90;;;4.05;;
37647;SDS011;23490;53.656;10.076;2023-04-29T11:29:30;7.85;;;3.80;;
37647;SDS011;23490;53.656;10.076;2023-04-29T11:31:57;6.65;;;4.10;;
37647;SDS011;23490;53.656;10.076;2023-04-29T11:34:24;7.65;;;4.10;;
37647;SDS011;23490;53.656;10.076;2023-04-29T11:36:50;6.63;;;3.75;;
37647;SDS011;23490;53.656;10.076;2023-04-29T11:39:18;8.18;;;4.18;;
37647;SDS011;23490;53.656;10.076;2023-04-29T11:41:44;7.88;;;4.20;;
37647;SDS011;23490;53.656;10.076;2023-04-29T11:44:10;8.27;;;3.60;;
37647;SDS011;23490;53.656;10.076;2023-04-29T11:46:35;5.25;;;3.60;;
37647;SDS011;23490;53.656;10.076;2023-04-29T11:49:01;4.47;;;3.22;;
37647;SDS011;23490;53.656;10.076;2023-04-29T11:51:26;5.90;;;3.38;;
37647;SDS011;23490;53.656;10.076;2023-04-29T11:53:52;6.13;;;3.45;;
37647;SDS011;23490;53.656;10.076;2023-04-29T11:56:21;6.45;;;4.20;;
37647;SDS011;23490;53.656;10.076;2023-04-29T11:58:54;6.75;;;3.05;;
37647;SDS011;23490;53.656;10.076;2023-04-29T12:01:21;7.60;;;3.75;;
37647;SDS011;23490;53.656;10.076;2023-04-29T12:03:48;4.97;;;3.50;;
37647;SDS011;23490;53.656;10.076;2023-04-29T12:06:14;7.35;;;3.65;;
37647;SDS011;23490;53.656;10.076;2023-04-29T12:08:40;4.97;;;3.13;;
37647;SDS011;23490;53.656;10.076;2023-04-29T12:11:05;6.03;;;3.53;;
37647;SDS011;23490;53.656;10.076;2023-04-29T12:13:31;6.38;;;3.60;;
37647;SDS011;23490;53.656;10.076;2023-04-29T12:15:59;5.78;;;3.20;;
37647;SDS011;23490;53.656;10.076;2023-04-29T12:18:25;7.22;;;3.80;;
37647;SDS011;23490;53.656;10.076;2023-04-29T12:20:51;6.53;;;3.63;;
37647;SDS011;23490;53.656;10.076;2023-04-29T12:23:21;5.68;;;3.60;;
37647;SDS011;23490;53.656;10.076;2023-04-29T12:25:48;7.20;;;3.60;;
37647;SDS011;23490;53.656;10.076;2023-04-29T12:28:16;4.93;;;2.70;;
37647;SDS011;23490;53.656;10.076;2023-04-29T12:30:45;6.45;;;3.20;;
37647;SDS011;23490;53.656;10.076;2023-04-29T12:33:21;6.55;;;3.40;;
37647;SDS011;23490;53.656;10.076;2023-04-29T12:35:49;7.18;;;2.90;;
37647;SDS011;23490;53.656;10.076;2023-04-29T12:38:25;6.03;;;3.22;;
37647;SDS011;23490;53.656;10.076;2023-04-29T12:40:53;7.80;;;2.95;;
37647;SDS011;23490;53.656;10.076;2023-04-29T12:43:27;7.80;;;3.67;;
37647;SDS011;23490;53.656;10.076;2023-04-29T12:46:00;4.88;;;2.60;;
37647;SDS011;23490;53.656;10.076;2023-04-29T12:48:34;4.47;;;2.42;;
37647;SDS011;23490;53.656;10.076;2023-04-29T12:51:02;5.07;;;2.42;;
37647;SDS011;23490;53.656;10.076;2023-04-29T12:53:31;5.60;;;2.60;;
37647;SDS011;23490;53.656;10.076;2023-04-29T12:55:57;5.55;;;2.70;;
37647;SDS011;23490;53.656;10.076;2023-04-29T12:58:22;4.88;;;2.63;;
37647;SDS011;23490;53.656;10.076;2023-04-29T13:00:48;5.03;;;2.45;;
37647;SDS011;23490;53.656;10.076;2023-04-29T13:03:14;4.50;;;2.42;;
37647;SDS011;23490;53.656;10.076;2023-04-29T13:05:40;4.80;;;2.55;;
37647;SDS011;23490;53.656;10.076;2023-04-29T13:08:05;4.35;;;2.90;;
37647;SDS011;23490;53.656;10.076;2023-04-29T13:10:32;7.97;;;3.00;;
37647;SDS011;23490;53.656;10.076;2023-04-29T13:12:58;6.18;;;3.15;;
37647;SDS011;23490;53.656;10.076;2023-04-29T13:15:25;4.53;;;3.03;;
37647;SDS011;23490;53.656;10.076;2023-04-29T13:17:52;6.80;;;2.80;;
37647;SDS011;23490;53.656;10.076;2023-04-29T13:20:17;5.60;;;3.08;;
37647;SDS011;23490;53.656;10.076;2023-04-29T13:22:46;5.22;;;2.97;;
37647;SDS011;23490;53.656;10.076;2023-04-29T13:25:14;6.03;;;2.83;;
37647;SDS011;23490;53.656;10.076;2023-04-29T13:27:40;5.50;;;3.05;;
37647;SDS011;23490;53.656;10.076;2023-04-29T13:30:06;6.10;;;2.50;;
37647;SDS011;23490;53.656;10.076;2023-04-29T13:32:32;5.28;;;2.53;;
37647;SDS011;23490;53.656;10.076;2023-04-29T13:34:58;4.28;;;2.60;;
37647;SDS011;23490;53.656;10.076;2023-04-29T13:37:23;4.57;;;2.65;;
37647;SDS011;23490;53.656;10.076;2023-04-29T13:39:49;5.03;;;2.75;;
37647;SDS011;23490;53.656;10.076;2023-04-29T13:42:14;4.20;;;2.20;;
37647;SDS011;23490;53.656;10.076;2023-04-29T13:44:40;3.90;;;1.83;;
37647;SDS011;23490;53.656;10.076;2023-04-29T13:47:14;3.78;;;1.58;;
37647;SDS011;23490;53.656;10.076;2023-04-29T13:49:40;4.28;;;1.50;;
37647;SDS011;23490;53.656;10.076;2023-04-29T13:52:08;3.25;;;1.92;;
37647;SDS011;23490;53.656;10.076;2023-04-29T13:54:35;4.20;;;1.60;;
37647;SDS011;23490;53.656;10.076;2023-04-29T13:57:00;4.22;;;2.00;;
37647;SDS011;23490;53.656;10.076;2023-04-29T13:59:29;4.40;;;1.60;;
37647;SDS011;23490;53.656;10.076;2023-04-29T14:01:59;5.95;;;1.42;;
37647;SDS011;23490;53.656;10.076;2023-04-29T14:04:25;3.60;;;1.30;;
37647;SDS011;23490;53.656;10.076;2023-04-29T14:06:51;8.98;;;1.80;;
37647;SDS011;23490;53.656;10.076;2023-04-29T14:09:17;3.45;;;1.35;;
37647;SDS011;23490;53.656;10.076;2023-04-29T14:11:44;3.25;;;1.30;;
37647;SDS011;23490;53.656;10.076;2023-04-29T14:14:11;3.65;;;1.63;;
37647;SDS011;23490;53.656;10.076;2023-04-29T14:16:36;4.20;;;1.80;;
37647;SDS011;23490;53.656;10.076;2023-04-29T14:19:03;4.60;;;1.75;;
37647;SDS011;23490;53.656;10.076;2023-04-29T14:21:29;4.90;;;1.88;;
37647;SDS011;23490;53.656;10.076;2023-04-29T14:23:56;4.75;;;1.75;;
37647;SDS011;23490;53.656;10.076;2023-04-29T14:26:22;4.65;;;1.70;;
37647;SDS011;23490;53.656;10.076;2023-04-29T14:28:48;3.20;;;1.88;;
37647;SDS011;23490;53.656;10.076;2023-04-29T14:31:21;5.07;;;1.73;;
37647;SDS011;23490;53.656;10.076;2023-04-29T14:34:04;5.53;;;1.63;;
37647;SDS011;23490;53.656;10.076;2023-04-29T14:36:30;2.80;;;1.50;;
37647;SDS011;23490;53.656;10.076;2023-04-29T14:39:00;3.40;;;1.57;;
37647;SDS011;23490;53.656;10.076;2023-04-29T14:41:26;3.60;;;1.27;;
37647;SDS011;23490;53.656;10.076;2023-04-29T14:43:53;4.45;;;1.60;;
37647;SDS011;23490;53.656;10.076;2023-04-29T14:46:18;3.72;;;1.67;;
37647;SDS011;23490;53.656;10.076;2023-04-29T14:48:46;4.72;;;1.30;;
37647;SDS011;23490;53.656;10.076;2023-04-29T14:51:11;4.57;;;1.30;;
37647;SDS011;23490;53.656;10.076;2023-04-29T14:53:36;4.22;;;1.83;;
37647;SDS011;23490;53.656;10.076;2023-04-29T14:56:02;2.65;;;1.45;;
37647;SDS011;23490;53.656;10.076;2023-04-29T14:58:27;4.30;;;1.38;;
37647;SDS011;23490;53.656;10.076;2023-04-29T15:00:53;1.77;;;1.05;;
37647;SDS011;23490;53.656;10.076;2023-04-29T15:03:24;3.42;;;1.65;;